• Join FlightAware (Why Join?)
  • Login
  • US Flag 
02:51PM EDT


 

Airport Tracker/Info


-or-


 

Live Flight TrackerFlight Track Log ✈ SKW6440 ✈ 27-Apr-2013 ✈ KLAX - KCOS

Flight Track Log - Related Links

Times and Time Zones

All times are in EDT time to prevent confusion due to time zone crossing. See the SKW6440 flight status page for this flight to view local times or setup timezone preferences in your user account.

Time Position Orientation Groundspeed Altitude Reporting Facility
EDT Latitude Longitude Course Direction KTS MPH feet Rate Location/Type
07:09PM 33.9322 -118.4297 55° Northeast 163 188 1,700  Level Los Angeles Center
07:10PM 33.9039 -118.5136 248° West 242 278 4,000 2,160 Climbing Los Angeles Center
07:11PM 34.1129 -118.1056 51° Northeast  Level FlightAware Approximate
07:11PM 33.8478 -118.5578 213° Southwest 274 315 6,200  Level Los Angeles Center
07:12PM 34.1765 -117.9803 59° Northeast  Level FlightAware Approximate
07:12PM 33.8278 -118.4814 107° East 277 319 8,700  Level Los Angeles Center
07:13PM 34.2453 -117.8667 North  Level FlightAware Approximate
07:13PM 33.8967 -118.4386 27° Northeast 294 338 11,300  Level Los Angeles Center
07:14PM 34.3045 -117.7464 55° Northeast  Level FlightAware Approximate
07:14PM 33.9606 -118.3856 35° Northeast 297 342 13,200  Level Los Angeles Center
07:15PM 34.0131 -118.2931 56° Northeast 327 376 14,800 1,680 Climbing Los Angeles Center
07:16PM 34.0683 -118.1958 56° Northeast 347 399 16,700 1,740 Climbing Los Angeles Center
07:17PM 34.1244 -118.0947 56° Northeast 358 412 18,400 1,560 Climbing Los Angeles Center
07:18PM 34.1833 -117.9914 55° Northeast 368 423 20,000 1,680 Climbing Los Angeles Center
07:19PM 34.2556 -117.8633 56° Northeast 381 438 21,900 1,680 Climbing Los Angeles Center
07:20PM 34.3172 -117.7525 56° Northeast 391 450 23,500 960 Climbing Los Angeles Center
07:21PM 34.3808 -117.6389 56° Northeast 403 464 24,100 660 Climbing Los Angeles Center
07:22PM 34.4569 -117.4969 57° Northeast 417 480 25,100 1,020 Climbing Los Angeles Center
07:23PM 34.5258 -117.3739 56° Northeast 429 494 26,200 960 Climbing Los Angeles Center
07:24PM 34.5931 -117.2497 57° Northeast 441 507 27,100 1,020 Climbing Los Angeles Center
07:25PM 34.6756 -117.1011 56° Northeast 445 512 28,400 1,080 Climbing Los Angeles Center
07:26PM 34.7447 -116.9767 56° Northeast 448 516 29,400 960 Climbing Los Angeles Center
07:27PM 34.8136 -116.8489 57° Northeast 453 521 30,400 960 Climbing Los Angeles Center
07:28PM 34.8831 -116.7236 56° Northeast 451 519 31,400 960 Climbing Los Angeles Center
07:29PM 34.9506 -116.5978 57° Northeast 448 516 32,400 900 Climbing Los Angeles Center
07:30PM 35.0306 -116.4881 48° Northeast 439 505 33,300 840 Climbing Los Angeles Center
07:31PM 35.1342 -116.3589 46° Northeast 443 510 34,200 780 Climbing Los Angeles Center
07:32PM 35.2219 -116.2525 45° Northeast 445 512 35,000 720 Climbing Los Angeles Center
07:33PM 35.3067 -116.1439 46° Northeast 442 509 35,800 780 Climbing Los Angeles Center
07:34PM 35.3911 -116.0364 46° Northeast 440 506 36,600 660 Climbing Los Angeles Center
07:36PM 35.4761 -115.9314 45° Northeast 435 501 37,200 600 Climbing Los Angeles Center
07:37PM 35.5753 -115.8069 46° Northeast 435 501 37,900 600 Climbing Los Angeles Center
07:38PM 35.6583 -115.7008 46° Northeast 432 497 38,500 540 Climbing Los Angeles Center
07:39PM 35.7217 -115.5797 57° Northeast 428 493 39,100 240 Climbing Los Angeles Center
07:40PM 35.7619 -115.4411 70° East 431 496 39,000 -60 Descending Los Angeles Center
07:41PM 35.8031 -115.2997 70° East 438 504 39,000  Level Los Angeles Center
07:42PM 35.8419 -115.1589 71° East 437 503 39,000  Level Los Angeles Center
07:43PM 35.8928 -114.9831 70° East 453 521 39,000  Level Los Angeles Center
07:44PM 35.9342 -114.8356 71° East 456 525 39,000  Level Los Angeles Center
07:45PM 35.9772 -114.6856 70° East 464 534 39,000  Level Los Angeles Center
07:46PM 36.0189 -114.5361 71° East 462 532 39,000  Level Los Angeles Center
07:47PM 36.0608 -114.3861 71° East 462 532 39,000  Level Los Angeles Center
07:48PM 36.1031 -114.2383 70° East 459 528 39,000  Level Los Angeles Center
07:49PM 36.1439 -114.0900 71° East 457 526 39,000  Level Los Angeles Center
07:50PM 36.1928 -113.9111 71° East 458 527 39,000  Level Los Angeles Center
07:51PM 36.2350 -113.7617 71° East 460 529 39,000  Level Los Angeles Center
07:52PM 36.2747 -113.6119 72° East 459 528 39,000  Level Los Angeles Center
07:53PM 36.3158 -113.4631 71° East 458 527 39,000  Level Los Angeles Center
07:54PM 36.3564 -113.3131 71° East 460 529 39,000  Level Los Angeles Center
07:55PM 36.3992 -113.1481 72° East 457 526 39,000  Level Los Angeles Center
07:56PM 36.4392 -112.9989 72° East 458 527 39,000  Level Los Angeles Center
07:57PM 36.4789 -112.8483 72° East 460 529 39,000  Level Los Angeles Center
07:58PM 36.5194 -112.6989 71° East 459 528 39,000  Level Los Angeles Center
07:59PM 36.5581 -112.5475 72° East 461 531 39,000  Level Los Angeles Center
08:00PM 36.6053 -112.3675 72° East 459 528 39,000  Level Los Angeles Center
08:01PM 36.6447 -112.2183 72° East 457 526 39,000  Level Los Angeles Center
08:02PM 36.6814 -112.0694 73° East 457 526 39,000  Level Denver Center
08:03PM 36.7197 -111.9181 72° East 459 528 39,000  Level Denver Center
08:04PM 36.7656 -111.7361 72° East 460 529 39,000  Level Denver Center
08:05PM 36.8058 -111.5833 72° East 463 533 39,000  Level Denver Center
08:06PM 36.8433 -111.4314 73° East 462 532 39,000  Level Denver Center
08:07PM 36.8817 -111.2783 73° East 463 533 39,000  Level Denver Center
08:08PM 36.9178 -111.1267 73° East 460 529 39,000  Level Denver Center
08:10PM 36.9556 -110.9750 73° East 460 529 39,000  Level Denver Center
08:11PM 36.9922 -110.8231 73° East 458 527 39,000  Level Denver Center
08:12PM 37.0286 -110.6708 73° East 459 528 39,000  Level Denver Center
08:13PM 37.0739 -110.4886 73° East 459 528 39,000  Level Denver Center
08:14PM 37.1103 -110.3347 73° East 462 532 39,000  Level Denver Center
08:15PM 37.1467 -110.1814 73° East 460 529 39,000  Level Denver Center
08:16PM 37.1825 -110.0317 73° East 462 532 39,100  Climbing Denver Center
08:17PM 37.2114 -109.9092 73° East 459 528 39,000 -60 Descending Denver Center
08:18PM 37.2569 -109.7111 74° East 461 531 39,000  Level Denver Center
08:19PM 37.2917 -109.5644 73° East 459 528 39,000  Level Denver Center
08:20PM 37.3303 -109.3917 74° East 458 527 39,000  Level Denver Center
08:21PM 37.3650 -109.2442 73° East 458 527 39,000  Level Denver Center
08:22PM 37.3983 -109.0964 74° East 458 527 39,000  Level Denver Center
08:23PM 37.4378 -108.9228 74° East 461 531 39,000  Level Denver Center
08:24PM 37.4706 -108.7736 74° East 462 532 39,000  Level Denver Center
08:25PM 37.5100 -108.5986 74° East 465 535 39,000  Level Denver Center
08:26PM 37.5431 -108.4483 74° East 464 534 39,000  Level Denver Center
08:27PM 37.5750 -108.2989 75° East 463 533 39,000  Level Denver Center
08:28PM 37.6133 -108.1269 74° East 458 527 39,000  Level Denver Center
08:29PM 37.6453 -107.9781 75° East 459 528 39,000 -300 Level Denver Center
08:30PM 37.6764 -107.8283 75° East 459 528 38,400 -660 Descending Denver Center
08:31PM 37.7142 -107.6533 75° East 464 534 37,700 -600 Descending Denver Center
08:32PM 37.7464 -107.5006 75° East 469 540 37,200 -540 Descending Denver Center
08:33PM 37.7839 -107.3250 75° East 465 535 36,600 -540 Descending Denver Center
08:34PM 37.8233 -107.1367 75° East 460 529 36,100 -720 Descending Denver Center
08:35PM 37.8528 -106.9911 76° East 449 517 35,200 -1,260 Descending Denver Center
08:36PM 37.8889 -106.8139 75° East 465 535 33,600 -1,560 Descending Denver Center
08:37PM 37.9194 -106.6650 75° East 459 528 32,100 -1,440 Descending Denver Center
08:38PM 37.9486 -106.5222 75° East 438 504 30,700 -1,620 Descending Denver Center
08:39PM 37.9831 -106.3494 76° East 439 505 28,900 -1,440 Descending Denver Center
08:40PM 38.0114 -106.2014 76° East 449 517 27,800 -960 Descending Denver Center
08:41PM 38.0408 -106.0533 76° East 452 520 27,000 -840 Descending Denver Center
08:42PM 38.0761 -105.8778 76° East 459 528 26,100 -1,380 Descending Denver Center
08:43PM 38.1056 -105.7306 76° East 452 520 24,200 -1,560 Descending Denver Center
08:44PM 38.1375 -105.5642 76° East 437 503 23,000 -600 Descending Denver Center
08:45PM 38.1636 -105.4217 77° East 432 497 23,000  Level Denver Center
08:47PM 38.1925 -105.2750 76° East 442 509 23,000 -660 Level Denver Center
08:48PM 38.2247 -105.1008 77° East 449 517 21,700 -2,340 Descending Denver Center
08:49PM 38.2517 -104.9611 76° East 434 499 18,300 -3,240 Descending Denver Center
08:50PM 38.2769 -104.8233 77° East 423 487 15,100 -2,160 Descending Denver Center
08:51PM 38.3217 -104.6781 69° East 408 470 14,000 -540 Descending Denver Center
08:52PM 38.4203 -104.6433 15° North 390 449 14,000 -780 Level Denver Center
08:53PM 38.5189 -104.6536 355° North 320 368 12,500 -1,860 Descending Denver Center
08:54PM 38.5819 -104.6658 351° North 296 341 10,300 -2,220 Descending Denver Center